createdAt,value
2022-11-02T00:00:27.714Z,20.92
2022-11-02T00:01:09.182Z,19.42
2022-11-02T00:01:46.339Z,20.83
2022-11-02T00:02:18.657Z,19.75
2022-11-02T00:02:51.009Z,20.80
2022-11-02T00:03:25.793Z,21.35
2022-11-02T00:03:58.001Z,19.60
2022-11-02T00:04:30.075Z,19.48
2022-11-02T00:05:02.189Z,19.52
2022-11-02T00:05:36.951Z,19.52
2022-11-02T00:06:09.059Z,21.55
2022-11-02T00:06:41.464Z,18.80
2022-11-02T00:07:18.738Z,19.45
2022-11-02T00:07:51.316Z,19.73
2022-11-02T00:08:23.377Z,19.50
2022-11-02T00:08:58.033Z,18.83
2022-11-02T00:09:30.089Z,20.50
2022-11-02T00:10:02.313Z,18.80
2022-11-02T00:10:37.078Z,18.90
2022-11-02T00:11:09.267Z,18.27
2022-11-02T00:11:41.865Z,20.67
2022-11-02T00:12:13.953Z,20.13
2022-11-02T00:12:48.889Z,19.60
2022-11-02T00:13:21.021Z,20.30
2022-11-02T00:13:53.116Z,18.95
2022-11-02T00:14:28.055Z,19.33
2022-11-02T00:15:00.159Z,19.17
2022-11-02T00:15:36.462Z,17.77
2022-11-02T00:16:14.777Z,20.40
2022-11-02T00:16:47.148Z,18.67
2022-11-02T00:17:19.276Z,19.40
2022-11-02T00:17:58.319Z,16.98
2022-11-02T00:18:30.956Z,18.60
2022-11-02T00:19:06.906Z,18.95
2022-11-02T00:19:38.999Z,18.92
2022-11-02T00:20:14.310Z,19.65
2022-11-02T00:20:49.054Z,18.67
2022-11-02T00:21:21.972Z,19.70
2022-11-02T00:21:55.758Z,18.05
2022-11-02T00:22:34.020Z,18.73
2022-11-02T00:23:07.980Z,18.55
2022-11-02T00:23:41.668Z,18.05
2022-11-02T00:24:16.429Z,19.20
2022-11-02T00:24:48.509Z,17.70
2022-11-02T00:25:23.800Z,17.35
2022-11-02T00:25:58.695Z,17.08
2022-11-02T00:26:38.808Z,18.60
2022-11-02T00:27:11.528Z,16.48
2022-11-02T00:27:43.760Z,17.08
2022-11-02T00:28:19.250Z,17.20
2022-11-02T00:28:51.606Z,17.38
2022-11-02T00:29:24.455Z,16.83
2022-11-02T00:29:59.233Z,17.02
2022-11-02T00:30:31.339Z,17.77
2022-11-02T00:31:03.598Z,17.63
2022-11-02T00:31:38.362Z,17.17
2022-11-02T00:32:10.449Z,17.25
2022-11-02T00:32:42.707Z,18.42
2022-11-02T00:33:17.384Z,17.20
2022-11-02T00:33:49.621Z,17.33
2022-11-02T00:34:21.752Z,15.93
2022-11-02T00:34:56.404Z,16.00
2022-11-02T00:35:28.717Z,16.55
2022-11-02T00:36:00.842Z,16.65
2022-11-02T00:36:36.804Z,19.88
2022-11-02T00:37:08.867Z,17.13
2022-11-02T00:37:43.633Z,17.92
2022-11-02T00:38:18.426Z,16.48
2022-11-02T00:38:50.802Z,17.17
2022-11-02T00:39:24.286Z,17.10
2022-11-02T00:39:58.941Z,17.60
2022-11-02T00:40:31.047Z,17.55
2022-11-02T00:41:03.226Z,18.15
2022-11-02T00:41:37.924Z,17.45
2022-11-02T00:42:10.179Z,17.40
2022-11-02T00:42:42.275Z,19.77
2022-11-02T00:43:14.520Z,18.23
2022-11-02T00:43:49.200Z,18.20
2022-11-02T00:44:21.263Z,20.52
2022-11-02T00:44:53.384Z,18.90
2022-11-02T00:45:28.233Z,18.85
2022-11-02T00:46:01.098Z,17.92
2022-11-02T00:46:33.181Z,19.00
2022-11-02T00:47:07.962Z,19.77
2022-11-02T00:47:40.202Z,19.75
2022-11-02T00:48:12.279Z,19.27
2022-11-02T00:48:47.189Z,20.33
2022-11-02T00:49:19.298Z,18.33
2022-11-02T00:49:51.580Z,18.45
2022-11-02T00:50:26.269Z,18.60
2022-11-02T00:50:58.356Z,18.83
2022-11-02T00:51:33.612Z,18.50
2022-11-02T00:52:09.066Z,18.33
2022-11-02T00:52:43.850Z,17.17
2022-11-02T00:53:16.076Z,17.60
2022-11-02T00:53:58.490Z,18.23
2022-11-02T00:54:31.030Z,18.52
2022-11-02T00:55:03.237Z,18.20
2022-11-02T00:55:38.245Z,18.17
2022-11-02T00:56:10.724Z,18.75
2022-11-02T00:56:42.812Z,17.67
2022-11-02T00:57:17.475Z,18.48
2022-11-02T00:57:49.754Z,18.95
2022-11-02T00:58:22.069Z,18.23
2022-11-02T00:58:58.431Z,17.42
2022-11-02T00:59:30.532Z,18.00
2022-11-02T01:00:02.881Z,19.60
2022-11-02T01:00:37.546Z,18.85
2022-11-02T01:01:09.758Z,19.02
2022-11-02T01:01:47.377Z,19.27
2022-11-02T01:02:22.281Z,17.95
2022-11-02T01:02:54.600Z,18.92
2022-11-02T01:03:26.674Z,19.63
2022-11-02T01:04:01.803Z,17.92
2022-11-02T01:04:34.285Z,18.40
2022-11-02T01:05:08.645Z,17.75
2022-11-02T01:05:43.318Z,18.10
2022-11-02T01:06:16.107Z,19.35
2022-11-02T01:06:48.205Z,17.50
2022-11-02T01:07:22.981Z,17.23
2022-11-02T01:07:57.740Z,15.85
2022-11-02T01:08:29.819Z,16.92
2022-11-02T01:09:06.520Z,16.80
2022-11-02T01:09:38.664Z,16.52
2022-11-02T01:10:11.658Z,15.65
2022-11-02T01:10:48.412Z,14.23
2022-11-02T01:11:23.875Z,15.10
2022-11-02T01:11:56.521Z,14.10
2022-11-02T01:12:31.190Z,16.55
2022-11-02T01:13:03.392Z,16.88
2022-11-02T01:13:35.469Z,17.38
2022-11-02T01:14:10.408Z,16.02
2022-11-02T01:14:42.566Z,16.13
2022-11-02T01:15:14.735Z,14.73
2022-11-02T01:15:49.380Z,15.43
2022-11-02T01:16:21.538Z,15.88
2022-11-02T01:16:54.749Z,14.25
2022-11-02T01:17:27.004Z,16.30
2022-11-02T01:18:01.981Z,15.50
2022-11-02T01:18:34.543Z,17.33
2022-11-02T01:19:07.053Z,15.68
2022-11-02T01:19:41.727Z,15.43
2022-11-02T01:20:14.082Z,14.95
2022-11-02T01:20:46.178Z,16.30
2022-11-02T01:21:20.835Z,18.02
2022-11-02T01:21:52.915Z,18.55
2022-11-02T01:22:25.358Z,16.63
2022-11-02T01:23:24.099Z,16.85
2022-11-02T01:23:58.779Z,16.08
2022-11-02T01:24:30.877Z,17.48
2022-11-02T01:25:06.263Z,15.93
2022-11-02T01:25:38.345Z,17.10
2022-11-02T01:26:11.988Z,17.08
2022-11-02T01:26:48.239Z,18.60
2022-11-02T01:27:20.325Z,15.85
2022-11-02T01:27:55.048Z,16.33
2022-11-02T01:28:27.256Z,17.42
2022-11-02T01:28:59.455Z,16.75
2022-11-02T01:29:31.551Z,18.25
2022-11-02T01:30:07.826Z,16.98
2022-11-02T01:30:41.225Z,17.15
2022-11-02T01:31:13.427Z,15.77
2022-11-02T01:31:48.709Z,17.63
2022-11-02T01:32:22.467Z,18.48
2022-11-02T01:32:54.553Z,17.20
2022-11-02T01:33:29.378Z,17.70
2022-11-02T01:34:01.585Z,18.58
2022-11-02T01:34:33.653Z,16.80
2022-11-02T01:35:08.749Z,19.02
2022-11-02T01:35:41.120Z,17.20
2022-11-02T01:36:14.930Z,18.40
2022-11-02T01:36:49.961Z,17.73
2022-11-02T01:37:22.381Z,16.98
2022-11-02T01:37:54.476Z,17.10
2022-11-02T01:38:29.139Z,17.55
2022-11-02T01:39:04.355Z,18.70
2022-11-02T01:39:36.481Z,19.42
2022-11-02T01:40:12.559Z,16.17
2022-11-02T01:40:44.648Z,17.10
2022-11-02T01:41:17.595Z,16.42
2022-11-02T01:41:55.428Z,17.30
2022-11-02T01:42:28.836Z,17.58
2022-11-02T01:43:01.775Z,16.92
2022-11-02T01:43:38.624Z,16.65
2022-11-02T01:44:28.854Z,17.33
2022-11-02T01:45:03.541Z,18.73
2022-11-02T01:45:35.751Z,17.42
2022-11-02T01:46:16.972Z,16.60
2022-11-02T01:46:51.699Z,16.15
2022-11-02T01:47:27.112Z,17.13
2022-11-02T01:48:02.026Z,15.65
2022-11-02T01:48:36.795Z,16.70
2022-11-02T01:49:17.750Z,16.02
2022-11-02T01:49:56.497Z,16.45
2022-11-02T01:50:28.780Z,15.50
2022-11-02T01:51:05.832Z,15.27
2022-11-02T01:51:44.389Z,16.70
2022-11-02T01:52:20.439Z,16.38
2022-11-02T01:52:52.910Z,15.82
2022-11-02T01:53:27.608Z,16.00
2022-11-02T01:54:08.779Z,15.43
2022-11-02T01:54:44.767Z,16.30
2022-11-02T01:55:23.295Z,15.43
2022-11-02T01:55:55.964Z,14.57
2022-11-02T01:56:31.883Z,14.57
2022-11-02T01:57:09.725Z,14.90
2022-11-02T01:57:46.934Z,15.95
2022-11-02T01:58:19.164Z,15.82
2022-11-02T01:58:59.851Z,15.20
2022-11-02T01:59:37.184Z,15.90
2022-11-02T02:00:12.737Z,14.75
2022-11-02T02:00:50.165Z,14.38
2022-11-02T02:01:22.529Z,14.30
2022-11-02T02:01:54.817Z,14.90
2022-11-02T02:02:28.419Z,15.30
2022-11-02T02:03:08.332Z,15.07
2022-11-02T02:03:43.597Z,16.02
2022-11-02T02:04:16.026Z,14.43
2022-11-02T02:04:55.479Z,14.52
2022-11-02T02:05:31.085Z,13.85
2022-11-02T02:06:09.165Z,15.25
2022-11-02T02:06:44.885Z,15.52
2022-11-02T02:07:18.254Z,14.73
2022-11-02T02:07:51.371Z,14.43
2022-11-02T02:08:28.080Z,14.00
2022-11-02T02:09:07.465Z,14.77
2022-11-02T02:09:39.643Z,16.02
2022-11-02T02:10:14.648Z,14.73
2022-11-02T02:10:46.757Z,14.70
2022-11-02T02:11:27.306Z,14.27
2022-11-02T02:11:59.372Z,14.75
2022-11-02T02:12:35.585Z,14.27
2022-11-02T02:13:08.051Z,13.90
2022-11-02T02:13:40.166Z,15.15
2022-11-02T02:14:17.263Z,13.68
2022-11-02T02:14:53.918Z,14.25
2022-11-02T02:15:44.092Z,15.77
2022-11-02T02:16:29.889Z,14.20
2022-11-02T02:17:21.147Z,14.25
2022-11-02T02:18:03.839Z,13.23
2022-11-02T02:18:43.291Z,13.55
2022-11-02T02:19:28.209Z,14.45
2022-11-02T02:20:10.868Z,14.50
2022-11-02T02:21:02.669Z,14.00
2022-11-02T02:21:46.237Z,15.75
2022-11-02T02:23:04.489Z,15.35
2022-11-02T02:24:10.294Z,13.63
2022-11-02T02:24:54.828Z,14.10
2022-11-02T02:25:45.602Z,14.07
2022-11-02T02:26:50.521Z,13.23
2022-11-02T02:27:30.286Z,13.60
2022-11-02T02:28:22.236Z,13.77
2022-11-02T02:28:59.314Z,13.45
2022-11-02T02:29:49.336Z,12.57
2022-11-02T02:30:21.739Z,13.85
2022-11-02T02:30:59.165Z,14.15
2022-11-02T02:31:39.589Z,12.85
2022-11-02T02:32:52.556Z,13.10
2022-11-02T02:33:34.689Z,14.88
2022-11-02T02:34:12.913Z,13.05
2022-11-02T02:34:51.963Z,14.68
2022-11-02T02:35:31.463Z,14.30
2022-11-02T02:36:12.042Z,13.70
2022-11-02T02:37:45.854Z,14.68
2022-11-02T02:38:25.413Z,14.18
2022-11-02T02:39:03.586Z,13.75
2022-11-02T02:39:45.015Z,13.65
2022-11-02T02:40:22.129Z,12.55
2022-11-02T02:40:59.986Z,14.00
2022-11-02T02:41:41.917Z,13.75
2022-11-02T02:42:20.131Z,13.63
2022-11-02T02:42:57.092Z,13.18
2022-11-02T02:43:39.714Z,13.55
2022-11-02T02:44:16.439Z,12.68
2022-11-02T02:44:58.896Z,13.20
2022-11-02T02:45:39.179Z,14.02
2022-11-02T02:46:19.088Z,14.15
2022-11-02T02:46:56.928Z,14.02
2022-11-02T02:47:36.330Z,13.45
2022-11-02T02:48:14.890Z,13.38
2022-11-02T02:48:48.914Z,14.63
2022-11-02T02:49:29.099Z,13.00
2022-11-02T02:50:06.929Z,14.00
2022-11-02T02:50:45.181Z,13.05
2022-11-02T02:51:25.792Z,16.83
2022-11-02T02:52:00.644Z,13.13
2022-11-02T02:52:34.952Z,13.38
2022-11-02T02:53:11.035Z,13.70
2022-11-02T02:53:47.546Z,13.70
2022-11-02T02:54:26.323Z,13.50
2022-11-02T02:55:03.745Z,13.52
2022-11-02T02:55:41.454Z,14.07
2022-11-02T02:56:16.420Z,13.05
2022-11-02T02:56:54.549Z,13.00
2022-11-02T02:57:30.837Z,13.35
2022-11-02T02:58:05.001Z,13.25
2022-11-02T02:58:48.066Z,13.43
2022-11-02T02:59:24.664Z,13.10
2022-11-02T02:59:56.854Z,13.45
2022-11-02T03:00:33.273Z,15.25
2022-11-02T03:01:06.907Z,12.55
2022-11-02T03:01:44.383Z,14.32
2022-11-02T03:02:24.078Z,14.55
2022-11-02T03:03:01.466Z,13.88
2022-11-02T03:03:35.160Z,13.73
2022-11-02T03:04:14.449Z,12.52
2022-11-02T03:04:46.530Z,13.13
2022-11-02T03:05:26.608Z,15.07
2022-11-02T03:06:07.948Z,13.98
2022-11-02T03:06:45.393Z,14.18
2022-11-02T03:07:23.806Z,12.82
2022-11-02T03:08:03.471Z,14.25
2022-11-02T03:08:38.028Z,13.82
2022-11-02T03:09:21.573Z,13.60
2022-11-02T03:10:05.954Z,14.15
2022-11-02T03:10:49.428Z,14.27
2022-11-02T03:11:23.470Z,14.60
2022-11-02T03:12:09.297Z,15.25
2022-11-02T03:12:55.658Z,15.65
2022-11-02T03:13:39.005Z,15.02
2022-11-02T03:14:27.313Z,14.52
2022-11-02T03:15:10.516Z,16.33
2022-11-02T03:15:49.381Z,13.10
2022-11-02T03:16:41.767Z,13.13
2022-11-02T03:17:16.978Z,13.50
2022-11-02T03:18:03.775Z,13.27
2022-11-02T03:18:49.986Z,14.10
2022-11-02T03:19:30.820Z,14.07
2022-11-02T03:20:12.022Z,13.57
2022-11-02T03:21:01.230Z,13.25
2022-11-02T03:21:40.689Z,14.88
2022-11-02T03:22:33.296Z,14.15
2022-11-02T03:23:16.688Z,13.73
2022-11-02T03:23:55.722Z,14.05
2022-11-02T03:24:35.926Z,15.88
2022-11-02T03:25:56.213Z,13.38
2022-11-02T03:26:34.654Z,13.75
2022-11-02T03:27:18.857Z,13.77
2022-11-02T03:27:58.823Z,13.60
2022-11-02T03:28:43.181Z,14.90
2022-11-02T03:29:21.808Z,14.52
2022-11-02T03:30:04.341Z,14.00
2022-11-02T03:30:42.874Z,14.38
2022-11-02T03:31:25.152Z,15.48
2022-11-02T03:32:01.001Z,14.10
2022-11-02T03:32:39.709Z,14.82
2022-11-02T03:33:22.400Z,13.68
2022-11-02T03:33:59.956Z,13.25
2022-11-02T03:34:37.816Z,13.68
2022-11-02T03:35:20.453Z,15.90
2022-11-02T03:36:00.170Z,15.85
2022-11-02T03:36:37.863Z,16.88
2022-11-02T03:37:19.634Z,14.50
2022-11-02T03:37:56.574Z,13.98
2022-11-02T03:38:38.068Z,14.85
2022-11-02T03:39:13.963Z,15.20
2022-11-02T03:39:49.280Z,16.13
2022-11-02T03:40:28.855Z,14.80
2022-11-02T03:41:03.421Z,14.43
2022-11-02T03:41:38.000Z,13.80
2022-11-02T03:42:16.573Z,15.13
2022-11-02T03:42:50.923Z,14.00
2022-11-02T03:43:25.212Z,14.82
2022-11-02T03:44:07.106Z,14.50
2022-11-02T03:45:18.974Z,13.73
2022-11-02T03:45:57.817Z,15.20
2022-11-02T03:46:34.350Z,13.00
2022-11-02T03:47:10.989Z,14.93
2022-11-02T03:47:46.973Z,14.27
2022-11-02T03:48:24.677Z,15.75
2022-11-02T03:48:57.502Z,14.23
2022-11-02T03:49:31.815Z,14.70
2022-11-02T03:50:08.980Z,14.38
2022-11-02T03:50:52.553Z,14.95
2022-11-02T03:51:28.921Z,14.68
2022-11-02T03:52:09.061Z,15.43
2022-11-02T03:52:45.936Z,13.80
2022-11-02T03:53:25.712Z,14.75
2022-11-02T03:54:06.868Z,14.68
2022-11-02T03:54:43.848Z,14.50
2022-11-02T03:55:23.280Z,14.38
2022-11-02T03:56:00.642Z,14.95
2022-11-02T03:56:38.673Z,13.65
2022-11-02T03:57:19.119Z,14.38
2022-11-02T03:57:52.906Z,15.48
2022-11-02T03:58:30.377Z,14.65
2022-11-02T03:59:05.513Z,15.07
2022-11-02T03:59:37.988Z,15.18
2022-11-02T04:00:15.798Z,15.00
2022-11-02T04:00:57.408Z,14.20
2022-11-02T04:01:31.758Z,15.90
2022-11-02T04:02:04.523Z,14.95
2022-11-02T04:02:39.025Z,15.55
2022-11-02T04:03:15.695Z,15.73
2022-11-02T04:03:50.150Z,15.15
2022-11-02T04:04:23.502Z,14.02
2022-11-02T04:04:58.816Z,15.25
2022-11-02T04:05:33.028Z,15.48
2022-11-02T04:06:09.157Z,13.57
2022-11-02T04:06:45.656Z,13.60
2022-11-02T04:07:22.337Z,14.98
2022-11-02T04:08:11.186Z,14.05
2022-11-02T04:08:49.446Z,14.63
2022-11-02T04:09:24.576Z,14.85
2022-11-02T04:09:56.923Z,14.40
2022-11-02T04:10:31.613Z,14.55
2022-11-02T04:11:18.888Z,16.35
2022-11-02T04:12:07.313Z,15.15
2022-11-02T04:12:54.515Z,13.57
2022-11-02T04:13:41.680Z,15.32
2022-11-02T04:14:28.795Z,13.95
2022-11-02T04:15:02.449Z,15.32
2022-11-02T04:15:40.289Z,15.20
2022-11-02T04:16:12.932Z,16.05
2022-11-02T04:16:46.554Z,18.50
2022-11-02T04:17:45.174Z,15.75
2022-11-02T04:18:35.229Z,18.55
2022-11-02T04:19:24.492Z,14.80
2022-11-02T04:20:00.741Z,15.23
2022-11-02T04:20:32.866Z,15.38
2022-11-02T04:21:05.597Z,15.60
2022-11-02T04:21:37.814Z,15.60
2022-11-02T04:22:25.231Z,16.77
2022-11-02T04:23:22.719Z,16.40
2022-11-02T04:24:10.931Z,16.00
2022-11-02T04:24:58.221Z,16.80
2022-11-02T04:25:33.434Z,17.25
2022-11-02T04:26:19.643Z,16.95
2022-11-02T04:26:51.779Z,16.90
2022-11-02T04:27:26.497Z,18.02
2022-11-02T04:28:07.895Z,16.90
2022-11-02T04:28:45.650Z,18.15
2022-11-02T04:29:17.784Z,16.35
2022-11-02T04:29:51.217Z,15.32
2022-11-02T04:30:27.279Z,17.67
2022-11-02T04:31:03.491Z,17.50
2022-11-02T04:32:35.814Z,15.20
2022-11-02T04:33:24.127Z,16.33
2022-11-02T04:34:01.593Z,14.77
2022-11-02T04:34:33.681Z,14.63
2022-11-02T04:35:07.367Z,15.60
2022-11-02T04:35:42.393Z,16.27
2022-11-02T04:36:14.990Z,15.52
2022-11-02T04:36:48.190Z,18.30
2022-11-02T04:37:35.188Z,16.38
2022-11-02T04:38:22.550Z,15.98
2022-11-02T04:38:55.108Z,16.58
2022-11-02T04:39:33.116Z,15.57
2022-11-02T04:40:06.175Z,15.43
2022-11-02T04:40:38.354Z,15.38
2022-11-02T04:41:28.021Z,15.98
2022-11-02T04:42:02.883Z,16.63
2022-11-02T04:43:15.333Z,17.08
2022-11-02T04:43:47.671Z,16.45
2022-11-02T04:44:24.846Z,17.85
2022-11-02T04:45:13.047Z,17.05
2022-11-02T04:45:45.366Z,19.23
2022-11-02T04:46:20.502Z,17.80
2022-11-02T04:46:55.960Z,18.33
2022-11-02T04:47:31.710Z,17.80
2022-11-02T04:48:05.884Z,15.63
2022-11-02T04:48:41.206Z,17.15
2022-11-02T04:49:14.429Z,17.83
2022-11-02T04:49:47.292Z,15.75
2022-11-02T04:50:25.306Z,17.17
2022-11-02T04:50:58.352Z,16.52
2022-11-02T04:51:31.674Z,19.42
2022-11-02T04:52:06.692Z,17.23
2022-11-02T04:52:40.790Z,16.10
2022-11-02T04:53:13.837Z,16.45
2022-11-02T04:53:49.276Z,15.20
2022-11-02T04:54:21.978Z,17.10
2022-11-02T04:54:59.165Z,16.55
2022-11-02T04:55:34.729Z,15.93
2022-11-02T04:56:07.666Z,15.40
2022-11-02T04:56:39.767Z,15.73
2022-11-02T04:57:14.639Z,15.68
2022-11-02T04:57:48.365Z,15.55
2022-11-02T04:58:20.436Z,18.90
2022-11-02T04:58:57.151Z,16.00
2022-11-02T04:59:29.299Z,16.15
2022-11-02T05:00:01.608Z,16.00
2022-11-02T05:00:38.439Z,18.00
2022-11-02T05:01:15.356Z,15.65
2022-11-02T05:01:51.506Z,16.98
2022-11-02T05:02:26.529Z,15.98
2022-11-02T05:02:59.258Z,16.08
2022-11-02T05:03:31.959Z,16.50
2022-11-02T05:04:06.921Z,17.80
2022-11-02T05:04:40.692Z,17.52
2022-11-02T05:05:13.716Z,16.83
2022-11-02T05:05:47.126Z,16.77
2022-11-02T05:06:23.632Z,17.38
2022-11-02T05:07:01.089Z,19.02
2022-11-02T05:07:33.898Z,21.23
2022-11-02T05:08:06.856Z,19.63
2022-11-02T05:08:42.275Z,20.25
2022-11-02T05:09:14.373Z,16.83
2022-11-02T05:09:49.833Z,19.13
2022-11-02T05:10:25.376Z,16.27
2022-11-02T05:10:59.681Z,17.70
2022-11-02T05:11:33.133Z,16.95
2022-11-02T05:12:08.586Z,16.95
2022-11-02T05:12:40.852Z,17.83
2022-11-02T05:13:12.941Z,18.75
2022-11-02T05:13:47.623Z,17.27
2022-11-02T05:14:19.753Z,19.08
2022-11-02T05:14:51.851Z,19.65
2022-11-02T05:15:24.053Z,19.70
2022-11-02T05:15:59.843Z,18.83
2022-11-02T05:16:31.978Z,21.52
2022-11-02T05:17:06.653Z,21.25
2022-11-02T05:17:43.277Z,19.38
2022-11-02T05:18:19.217Z,22.27
2022-11-02T05:18:52.318Z,21.92
2022-11-02T05:19:25.597Z,23.55
2022-11-02T05:20:00.771Z,23.20
2022-11-02T05:20:34.159Z,26.17
2022-11-02T05:21:06.443Z,26.30
2022-11-02T05:21:41.189Z,25.95
2022-11-02T05:22:13.445Z,22.50
2022-11-02T05:22:45.603Z,21.60
2022-11-02T05:23:22.549Z,23.08
2022-11-02T05:23:54.686Z,20.50
2022-11-02T05:24:26.776Z,24.45
2022-11-02T05:25:01.514Z,22.67
2022-11-02T05:25:34.310Z,23.45
2022-11-02T05:26:09.216Z,23.38
2022-11-02T05:26:44.352Z,25.13
2022-11-02T05:27:16.582Z,23.88
2022-11-02T05:27:50.505Z,26.70
2022-11-02T05:28:27.627Z,23.55
2022-11-02T05:28:59.839Z,26.45
2022-11-02T05:29:31.973Z,23.50
2022-11-02T05:30:08.608Z,24.42
2022-11-02T05:30:40.658Z,21.33
2022-11-02T05:31:12.848Z,21.33
2022-11-02T05:31:47.606Z,23.42
2022-11-02T05:32:23.082Z,23.15
2022-11-02T05:32:56.475Z,23.10
2022-11-02T05:33:32.567Z,22.67
2022-11-02T05:34:09.824Z,21.45
2022-11-02T05:34:42.641Z,23.30
2022-11-02T05:35:18.403Z,22.60
2022-11-02T05:35:50.531Z,24.58
2022-11-02T05:36:22.704Z,23.17
2022-11-02T05:36:59.403Z,23.15
2022-11-02T05:37:31.501Z,19.77
2022-11-02T05:38:03.932Z,24.52
2022-11-02T05:39:11.615Z,20.80
2022-11-02T05:39:47.766Z,23.35
2022-11-02T05:40:25.038Z,21.48
2022-11-02T05:40:59.565Z,20.85
2022-11-02T05:41:35.150Z,21.17
2022-11-02T05:42:09.964Z,22.42
2022-11-02T05:42:42.047Z,25.40
2022-11-02T05:43:16.701Z,25.02
2022-11-02T05:43:52.049Z,21.77
2022-11-02T05:44:26.070Z,22.48
2022-11-02T05:44:59.404Z,22.42
2022-11-02T05:45:34.127Z,22.98
2022-11-02T05:46:06.204Z,20.48
2022-11-02T05:46:38.274Z,21.27
2022-11-02T05:47:13.145Z,23.02
2022-11-02T05:47:47.903Z,23.00
2022-11-02T05:48:20.812Z,21.00
2022-11-02T05:48:55.489Z,24.10
2022-11-02T05:49:27.586Z,23.98
2022-11-02T05:49:59.957Z,24.90
2022-11-02T05:50:34.673Z,23.75
2022-11-02T05:51:08.211Z,21.85
2022-11-02T05:51:42.917Z,26.73
2022-11-02T05:52:15.532Z,36.67
2022-11-02T05:52:48.011Z,23.33
2022-11-02T05:53:22.750Z,24.27
2022-11-02T05:53:54.886Z,25.20
2022-11-02T05:54:27.012Z,23.17
2022-11-02T05:55:01.848Z,24.65
2022-11-02T05:55:35.516Z,24.52
2022-11-02T05:56:08.619Z,24.63
2022-11-02T05:56:43.431Z,27.77
2022-11-02T05:57:17.205Z,23.15
2022-11-02T05:57:51.617Z,23.63
2022-11-02T05:58:26.452Z,23.63
2022-11-02T05:58:58.585Z,27.08
2022-11-02T05:59:30.697Z,26.08
2022-11-02T06:00:05.957Z,26.17
2022-11-02T06:00:44.407Z,26.13
2022-11-02T06:01:17.285Z,25.00
2022-11-02T06:01:52.042Z,24.90
2022-11-02T06:02:25.458Z,28.55
2022-11-02T06:03:00.412Z,28.40
2022-11-02T06:03:36.254Z,26.00
2022-11-02T06:04:08.600Z,26.55
2022-11-02T06:04:40.712Z,27.67
2022-11-02T06:05:15.599Z,24.05
2022-11-02T06:05:47.933Z,24.27
2022-11-02T06:06:22.626Z,27.73
2022-11-02T06:06:54.955Z,27.13
2022-11-02T06:07:27.121Z,24.42
2022-11-02T06:08:02.665Z,26.98
2022-11-02T06:08:36.082Z,26.25
2022-11-02T06:09:08.645Z,22.92
2022-11-02T06:09:43.313Z,25.23
2022-11-02T06:10:15.466Z,32.83
2022-11-02T06:10:48.886Z,24.90
2022-11-02T06:11:23.763Z,27.08
2022-11-02T06:11:56.707Z,27.90
2022-11-02T06:12:29.070Z,26.33
2022-11-02T06:13:05.608Z,28.13
2022-11-02T06:13:38.312Z,31.25
2022-11-02T06:14:10.679Z,35.10
2022-11-02T06:14:45.400Z,38.65
2022-11-02T06:15:17.584Z,43.28
2022-11-02T06:15:52.683Z,54.13
2022-11-02T06:16:24.852Z,61.33
2022-11-02T06:16:57.512Z,61.55
2022-11-02T06:17:32.345Z,59.58
2022-11-02T06:18:07.997Z,62.25
2022-11-02T06:18:40.159Z,63.03
2022-11-02T06:20:08.596Z,55.83
2022-11-02T06:20:40.689Z,59.38
2022-11-02T06:21:15.761Z,59.60
2022-11-02T06:21:48.636Z,61.10
2022-11-02T06:22:20.908Z,60.72
2022-11-02T06:22:55.615Z,57.88
2022-11-02T06:23:28.640Z,57.35
2022-11-02T06:24:01.070Z,56.50
2022-11-02T06:24:35.778Z,58.30
2022-11-02T06:25:09.392Z,50.10
2022-11-02T06:25:41.498Z,60.75
2022-11-02T06:26:16.177Z,67.30
2022-11-02T06:26:49.021Z,61.45
2022-11-02T06:27:21.099Z,60.95
2022-11-02T06:27:57.785Z,58.05
2022-11-02T06:28:35.241Z,60.75
2022-11-02T06:29:09.930Z,60.25
2022-11-02T06:29:42.045Z,56.55
2022-11-02T06:30:14.117Z,49.10
2022-11-02T06:30:46.272Z,50.47
2022-11-02T06:31:21.006Z,48.92
2022-11-02T06:31:53.131Z,55.67
2022-11-02T06:32:25.395Z,54.83
2022-11-02T06:33:03.121Z,57.70
2022-11-02T06:33:40.671Z,53.67
2022-11-02T06:34:15.430Z,55.38
2022-11-02T06:34:47.561Z,50.53
2022-11-02T06:35:21.641Z,49.13
2022-11-02T06:35:57.277Z,51.97
2022-11-02T06:36:29.365Z,46.80
2022-11-02T06:37:01.461Z,44.28
2022-11-02T06:37:34.727Z,39.25
2022-11-02T06:38:09.381Z,45.30
2022-11-02T06:38:42.207Z,45.53
2022-11-02T06:39:16.950Z,39.17
2022-11-02T06:39:49.157Z,39.63
2022-11-02T06:40:24.106Z,39.08
2022-11-02T06:41:03.627Z,41.60
2022-11-02T06:41:37.905Z,40.70
2022-11-02T06:42:10.314Z,40.35
2022-11-02T06:42:56.529Z,38.83
2022-11-02T06:43:38.548Z,43.20
2022-11-02T06:44:13.256Z,43.80
2022-11-02T06:44:45.384Z,31.40
2022-11-02T06:45:17.669Z,34.65
2022-11-02T06:45:52.370Z,37.97
2022-11-02T06:46:24.457Z,32.08
2022-11-02T06:46:56.585Z,31.83
2022-11-02T06:47:34.074Z,36.80
2022-11-02T06:48:06.225Z,37.33
2022-11-02T06:48:40.918Z,31.73
2022-11-02T06:49:15.636Z,33.80
2022-11-02T06:49:47.714Z,33.55
2022-11-02T06:50:19.895Z,27.88
2022-11-02T06:50:54.821Z,32.63
2022-11-02T06:51:26.912Z,26.90
2022-11-02T06:52:01.681Z,30.00
2022-11-02T06:52:33.965Z,32.53
2022-11-02T06:53:06.405Z,36.67
2022-11-02T06:53:41.386Z,37.47
2022-11-02T06:54:13.796Z,33.35
2022-11-02T06:54:45.880Z,38.20
2022-11-02T06:55:21.507Z,36.88
2022-11-02T06:55:54.229Z,36.60
2022-11-02T06:56:28.967Z,32.30
2022-11-02T06:57:01.115Z,38.42
2022-11-02T06:57:36.521Z,38.38
2022-11-02T06:58:11.257Z,35.80
2022-11-02T06:58:43.360Z,38.45
2022-11-02T06:59:18.027Z,39.00
2022-11-02T06:59:53.902Z,40.40
2022-11-02T07:00:26.425Z,36.80
2022-11-02T07:01:02.967Z,36.10
2022-11-02T07:01:35.670Z,34.90
2022-11-02T07:02:09.329Z,34.25
2022-11-02T07:02:44.142Z,38.25
2022-11-02T07:03:16.733Z,42.72
2022-11-02T10:48:52.781Z,22.65
2022-11-02T10:49:50.372Z,22.80
2022-11-02T10:50:44.953Z,20.65
2022-11-02T10:51:22.049Z,19.52
2022-11-02T10:51:54.396Z,20.42
2022-11-02T10:52:35.005Z,20.05
2022-11-02T10:54:16.140Z,19.25
2022-11-02T10:54:54.709Z,20.27
2022-11-02T10:55:40.494Z,22.75
2022-11-02T10:56:20.419Z,22.00
2022-11-02T10:56:52.660Z,19.98
2022-11-02T10:57:26.423Z,22.67
2022-11-02T10:58:06.666Z,18.30
2022-11-02T10:58:44.207Z,17.80
2022-11-02T10:59:20.455Z,21.25
2022-11-02T11:00:23.143Z,20.13
2022-11-02T11:01:08.244Z,19.63
2022-11-02T11:01:46.289Z,18.55
2022-11-02T11:02:21.023Z,19.85
2022-11-02T11:03:10.741Z,19.50
2022-11-02T11:04:03.959Z,19.17
2022-11-02T11:04:36.210Z,20.42
2022-11-02T11:05:13.581Z,18.38
2022-11-02T11:06:03.073Z,21.08
2022-11-02T11:06:38.035Z,19.00
2022-11-02T11:07:16.120Z,18.00
2022-11-02T11:07:50.878Z,16.20
2022-11-02T11:08:37.718Z,18.80
2022-11-02T11:09:20.185Z,16.38
2022-11-02T11:09:55.251Z,18.00
2022-11-02T11:10:27.775Z,19.33
2022-11-02T11:11:18.048Z,17.88
2022-11-02T11:11:54.899Z,19.27
2022-11-02T11:12:35.544Z,16.95
2022-11-02T11:16:19.632Z,15.90
2022-11-02T11:19:51.861Z,17.38
2022-11-02T11:20:33.557Z,17.02
2022-11-02T11:21:09.948Z,16.35
2022-11-02T11:21:43.257Z,17.88
2022-11-02T11:22:28.658Z,17.13
2022-11-02T11:23:22.480Z,16.83
2022-11-02T11:24:19.205Z,18.30
2022-11-02T11:24:54.009Z,18.40
2022-11-02T11:25:28.424Z,18.88
2022-11-02T11:26:04.945Z,18.50
2022-11-02T11:26:37.040Z,20.60
2022-11-02T11:27:18.121Z,19.63
2022-11-02T11:27:54.580Z,17.00
2022-11-02T11:28:30.975Z,17.58
2022-11-02T11:29:05.676Z,16.45
2022-11-02T11:29:40.316Z,16.95
2022-11-02T11:30:54.072Z,18.15
2022-11-02T11:31:23.351Z,18.20
2022-11-02T11:31:55.558Z,23.02
2022-11-02T11:32:30.687Z,17.65
2022-11-02T11:33:08.471Z,18.95
2022-11-02T11:33:56.231Z,17.50
2022-11-02T11:34:34.242Z,17.08
2022-11-02T11:35:15.343Z,17.80
2022-11-02T11:35:51.079Z,16.60
2022-11-02T11:36:30.591Z,16.05
2022-11-02T11:37:09.989Z,17.98
2022-11-02T11:37:51.099Z,18.00
2022-11-02T11:38:26.913Z,20.42
2022-11-02T11:39:04.908Z,19.48
2022-11-02T11:39:39.262Z,22.13
2022-11-02T11:40:20.833Z,27.75
2022-11-02T11:40:55.138Z,26.50
2022-11-02T11:41:30.943Z,20.85
2022-11-02T11:42:05.509Z,19.10
2022-11-02T11:42:40.593Z,17.73
2022-11-02T11:43:17.365Z,22.70
2022-11-02T11:43:53.884Z,18.48
2022-11-02T11:44:26.474Z,18.80
2022-11-02T11:45:05.221Z,17.98
2022-11-02T11:45:38.432Z,18.90